createdAt,value
2018-09-20T00:00:55.282Z,17.84
2018-09-20T00:03:58.795Z,17.73
2018-09-20T00:07:02.461Z,17.66
2018-09-20T00:10:06.345Z,17.97
2018-09-20T00:13:10.020Z,17.94
2018-09-20T00:16:13.756Z,17.75
2018-09-20T00:19:17.597Z,17.94
2018-09-20T00:22:21.167Z,18.00
2018-09-20T00:25:24.690Z,17.92
2018-09-20T00:28:28.455Z,17.89
2018-09-20T00:31:32.100Z,17.92
2018-09-20T00:34:35.675Z,17.63
2018-09-20T00:37:39.260Z,17.84
2018-09-20T00:40:42.915Z,17.80
2018-09-20T00:43:46.533Z,17.62
2018-09-20T00:46:50.029Z,17.62
2018-09-20T00:49:53.654Z,17.68
2018-09-20T00:52:57.327Z,18.00
2018-09-20T00:56:00.800Z,17.77
2018-09-20T00:59:04.456Z,17.53
2018-09-20T01:02:08.009Z,17.39
2018-09-20T01:05:11.615Z,17.43
2018-09-20T01:08:15.176Z,17.44
2018-09-20T01:11:18.823Z,17.22
2018-09-20T01:14:22.399Z,17.16
2018-09-20T01:17:25.943Z,17.58
2018-09-20T01:20:29.580Z,17.39
2018-09-20T01:23:33.200Z,17.23
2018-09-20T01:26:36.733Z,17.24
2018-09-20T01:29:40.249Z,17.15
2018-09-20T01:32:43.915Z,17.20
2018-09-20T01:35:47.486Z,17.36
2018-09-20T01:38:50.979Z,17.46
2018-09-20T01:41:54.530Z,17.47
2018-09-20T01:44:58.129Z,17.80
2018-09-20T01:48:01.729Z,17.65
2018-09-20T01:51:05.395Z,17.67
2018-09-20T01:54:08.989Z,17.48
2018-09-20T01:57:12.565Z,17.56
2018-09-20T02:00:16.130Z,17.63
2018-09-20T02:03:19.843Z,17.38
2018-09-20T02:06:23.482Z,17.47
2018-09-20T02:09:26.999Z,17.35
2018-09-20T02:12:30.562Z,17.37
2018-09-20T02:15:34.156Z,17.38
2018-09-20T02:18:37.690Z,17.35
2018-09-20T02:21:41.306Z,17.24
2018-09-20T02:24:44.844Z,17.05
2018-09-20T02:27:48.361Z,16.89
2018-09-20T02:30:51.905Z,16.80
2018-09-20T02:33:55.518Z,16.69
2018-09-20T02:36:59.015Z,16.55
2018-09-20T02:40:02.652Z,16.69
2018-09-20T02:43:06.281Z,16.89
2018-09-20T02:46:09.797Z,17.01
2018-09-20T02:49:13.356Z,16.95
2018-09-20T02:52:17.089Z,16.86
2018-09-20T02:55:20.713Z,16.87
2018-09-20T02:58:24.384Z,16.94
2018-09-20T03:01:28.040Z,16.89
2018-09-20T03:04:31.581Z,17.11
2018-09-20T03:07:35.154Z,17.09
2018-09-20T03:10:38.761Z,17.17
2018-09-20T03:13:42.421Z,17.05
2018-09-20T03:16:45.927Z,17.07
2018-09-20T03:19:49.491Z,16.94
2018-09-20T03:22:52.962Z,16.89
2018-09-20T03:25:56.563Z,17.02
2018-09-20T03:29:00.099Z,17.04
2018-09-20T03:32:03.645Z,16.84
2018-09-20T03:35:07.327Z,16.56
2018-09-20T03:38:10.965Z,16.42
2018-09-20T03:41:14.497Z,16.60
2018-09-20T03:44:18.119Z,16.58
2018-09-20T03:47:21.613Z,16.51
2018-09-20T03:50:25.107Z,16.71
2018-09-20T03:53:28.744Z,16.78
2018-09-20T03:56:32.305Z,16.86
2018-09-20T03:59:35.884Z,17.01
2018-09-20T04:02:39.416Z,16.98
2018-09-20T04:05:43.024Z,16.92
2018-09-20T04:08:46.598Z,16.75
2018-09-20T04:11:50.161Z,16.64
2018-09-20T04:14:53.830Z,16.65
2018-09-20T04:17:57.324Z,16.51
2018-09-20T04:21:00.852Z,16.43
2018-09-20T04:24:05.703Z,16.76
2018-09-20T04:27:09.200Z,16.84
2018-09-20T04:30:12.730Z,16.93
2018-09-20T04:33:16.301Z,16.58
2018-09-20T04:36:19.997Z,16.47
2018-09-20T04:39:23.557Z,16.63
2018-09-20T04:42:27.161Z,16.41
2018-09-20T04:45:30.685Z,16.37
2018-09-20T04:48:34.401Z,16.49
2018-09-20T04:51:37.935Z,16.33
2018-09-20T04:54:41.517Z,16.31
2018-09-20T04:57:45.101Z,16.06
2018-09-20T05:00:48.631Z,16.25
2018-09-20T05:03:52.175Z,16.24
2018-09-20T05:06:55.744Z,16.12
2018-09-20T05:09:59.227Z,15.98
2018-09-20T05:13:02.834Z,15.99
2018-09-20T05:16:06.445Z,16.03
2018-09-20T05:19:09.956Z,16.33
2018-09-20T05:22:13.596Z,16.58
2018-09-20T05:25:17.275Z,16.72
2018-09-20T05:28:20.937Z,16.87
2018-09-20T05:31:24.519Z,17.07
2018-09-20T05:34:28.176Z,17.10
2018-09-20T05:37:31.981Z,17.06
2018-09-20T05:40:35.475Z,17.20
2018-09-20T05:43:39.124Z,17.34
2018-09-20T05:46:43.317Z,17.81
2018-09-20T05:49:46.867Z,18.22
2018-09-20T05:52:50.466Z,18.59
2018-09-20T05:55:54.059Z,19.18
2018-09-20T05:58:57.544Z,19.20
2018-09-20T06:02:02.181Z,18.82
2018-09-20T06:05:06.066Z,18.69
2018-09-20T06:08:09.585Z,19.04
2018-09-20T06:11:13.127Z,19.35
2018-09-20T06:14:16.666Z,19.74
2018-09-20T06:17:20.149Z,19.62
2018-09-20T06:20:23.676Z,19.63
2018-09-20T06:23:27.275Z,19.48
2018-09-20T06:26:30.766Z,19.52
2018-09-20T06:29:34.381Z,19.58
2018-09-20T06:32:38.081Z,19.74
2018-09-20T06:35:41.685Z,19.44
2018-09-20T06:38:45.416Z,19.37
2018-09-20T06:41:48.979Z,19.45
2018-09-20T06:44:52.550Z,19.57
2018-09-20T06:47:56.080Z,19.67
2018-09-20T06:50:59.637Z,19.95
2018-09-20T06:54:03.404Z,19.87
2018-09-20T06:57:06.890Z,19.71
2018-09-20T07:00:10.437Z,19.75
2018-09-20T07:03:13.992Z,19.72
2018-09-20T07:06:17.583Z,19.59
2018-09-20T07:09:21.229Z,19.54
2018-09-20T07:12:24.776Z,19.44
2018-09-20T07:15:28.472Z,19.36
2018-09-20T07:18:31.999Z,19.36
2018-09-20T07:21:35.572Z,19.22
2018-09-20T07:24:39.075Z,19.30
2018-09-20T07:27:42.675Z,19.61
2018-09-20T07:30:46.221Z,19.80
2018-09-20T07:33:49.804Z,20.02
2018-09-20T07:36:53.350Z,20.21
2018-09-20T07:39:56.825Z,20.55
2018-09-20T07:43:00.492Z,20.62
2018-09-20T07:46:04.076Z,20.66
2018-09-20T07:49:07.599Z,20.42
2018-09-20T07:52:11.127Z,20.93
2018-09-20T07:55:14.732Z,20.86
2018-09-20T07:58:18.296Z,20.94
2018-09-20T08:01:21.930Z,21.07
2018-09-20T08:04:25.585Z,21.03
2018-09-20T08:07:29.700Z,20.77
2018-09-20T08:10:33.212Z,20.98
2018-09-20T08:13:36.836Z,21.09
2018-09-20T08:16:40.374Z,21.39
2018-09-20T08:19:44.055Z,21.44
2018-09-20T08:22:47.607Z,21.58
2018-09-20T08:25:51.287Z,21.59
2018-09-20T08:28:54.835Z,21.74
2018-09-20T08:31:58.405Z,21.82
2018-09-20T08:35:01.981Z,22.21
2018-09-20T08:38:05.456Z,22.48
2018-09-20T08:41:09.216Z,22.51
2018-09-20T08:44:12.761Z,22.41
2018-09-20T08:47:16.326Z,22.71
2018-09-20T08:50:19.897Z,22.49
2018-09-20T08:53:23.615Z,22.62
2018-09-20T08:56:27.237Z,22.44
2018-09-20T08:59:30.852Z,22.82
2018-09-20T09:02:34.455Z,22.55
2018-09-20T09:05:37.955Z,22.70
2018-09-20T09:08:41.455Z,22.61
2018-09-20T09:11:45.104Z,22.50
2018-09-20T09:14:48.951Z,22.63
2018-09-20T09:17:52.461Z,22.76
2018-09-20T09:20:56.194Z,22.66
2018-09-20T09:23:59.736Z,22.62
2018-09-20T09:27:03.325Z,22.69
2018-09-20T09:30:07.300Z,22.70
2018-09-20T09:33:10.848Z,22.76
2018-09-20T09:36:14.454Z,22.86
2018-09-20T09:39:17.951Z,22.96
2018-09-20T09:42:21.460Z,22.91
2018-09-20T09:45:25.374Z,23.02
2018-09-20T09:48:28.935Z,22.76
2018-09-20T09:51:32.436Z,22.78
2018-09-20T09:54:36.147Z,22.72
2018-09-20T09:57:39.791Z,22.92
2018-09-20T10:00:43.381Z,23.06
2018-09-20T10:03:46.915Z,23.16
2018-09-20T10:06:50.571Z,23.37
2018-09-20T10:09:54.193Z,23.53
2018-09-20T10:12:58.596Z,23.83
2018-09-20T10:16:02.137Z,23.94
2018-09-20T10:19:05.874Z,24.14
2018-09-20T10:22:09.392Z,23.94
2018-09-20T10:25:12.985Z,24.29
2018-09-20T10:28:16.635Z,24.54
2018-09-20T10:31:20.159Z,24.36
2018-09-20T10:34:23.672Z,24.36
2018-09-20T10:37:27.361Z,24.59
2018-09-20T10:40:30.939Z,24.43
2018-09-20T10:43:34.532Z,24.58
2018-09-20T10:46:38.137Z,24.89
2018-09-20T10:49:41.786Z,24.47
2018-09-20T10:52:45.311Z,24.84
2018-09-20T10:55:48.896Z,24.85
2018-09-20T10:58:52.521Z,24.89
2018-09-20T11:01:56.196Z,24.59
2018-09-20T11:04:59.852Z,24.59
2018-09-20T11:08:03.537Z,24.45
2018-09-20T11:11:07.464Z,24.86
2018-09-20T11:14:10.933Z,25.21
2018-09-20T11:17:14.507Z,24.94
2018-09-20T11:20:18.267Z,24.62
2018-09-20T11:23:21.847Z,24.60
2018-09-20T11:26:25.393Z,24.69
2018-09-20T11:29:28.866Z,24.84
2018-09-20T11:32:32.481Z,25.09
2018-09-20T11:35:36.092Z,25.47
2018-09-20T11:38:39.622Z,25.74
2018-09-20T11:41:43.315Z,25.66
2018-09-20T11:44:47.001Z,25.63
2018-09-20T11:47:50.508Z,25.66
2018-09-20T11:50:54.217Z,26.11
2018-09-20T11:53:57.867Z,25.51
2018-09-20T11:57:01.681Z,25.95
2018-09-20T12:00:05.397Z,26.04
2018-09-20T12:03:09.183Z,25.86
2018-09-20T12:06:12.733Z,25.91
2018-09-20T12:09:16.301Z,25.91
2018-09-20T12:12:19.944Z,26.01
2018-09-20T12:15:23.585Z,26.03
2018-09-20T12:18:27.316Z,26.02
2018-09-20T12:21:31.005Z,26.06
2018-09-20T12:24:34.712Z,26.04
2018-09-20T12:27:38.251Z,25.79
2018-09-20T12:30:42.087Z,25.53
2018-09-20T12:33:45.628Z,25.69
2018-09-20T12:36:49.501Z,25.90
2018-09-20T12:39:53.058Z,25.63
2018-09-20T12:42:56.812Z,25.68
2018-09-20T12:46:00.401Z,25.67
2018-09-20T12:49:04.233Z,25.82
2018-09-20T12:52:07.768Z,25.58
2018-09-20T12:55:11.367Z,25.93
2018-09-20T12:58:15.661Z,25.74
2018-09-20T13:01:20.476Z,25.72
2018-09-20T13:04:24.519Z,25.36
2018-09-20T13:07:28.156Z,25.01
2018-09-20T13:10:31.906Z,25.29
2018-09-20T13:13:35.511Z,25.47
2018-09-20T13:16:39.120Z,25.45
2018-09-20T13:19:42.681Z,25.31
2018-09-20T13:22:46.300Z,25.20
2018-09-20T13:25:50.005Z,25.15
2018-09-20T13:28:53.665Z,25.13
2018-09-20T13:31:57.215Z,25.19
2018-09-20T13:35:00.836Z,25.32
2018-09-20T13:38:04.468Z,25.24
2018-09-20T13:41:08.090Z,25.32
2018-09-20T13:44:11.795Z,25.23
2018-09-20T13:47:15.682Z,25.21
2018-09-20T13:50:19.401Z,25.12
2018-09-20T13:53:23.021Z,25.03
2018-09-20T13:56:26.773Z,25.10
2018-09-20T13:59:30.449Z,25.34
2018-09-20T14:02:34.039Z,25.25
2018-09-20T14:05:37.566Z,25.44
2018-09-20T14:08:41.325Z,25.39
2018-09-20T14:11:44.990Z,25.64
2018-09-20T14:14:48.605Z,25.34
2018-09-20T14:17:52.272Z,25.43
2018-09-20T14:20:56.065Z,25.44
2018-09-20T14:25:16.401Z,25.57
2018-09-20T14:28:20.064Z,25.53
2018-09-20T14:31:24.060Z,25.43
2018-09-20T14:34:27.665Z,25.45
2018-09-20T14:37:31.258Z,25.44
2018-09-20T14:40:34.857Z,25.58
2018-09-20T14:43:38.358Z,25.60
2018-09-20T14:46:42.366Z,25.56
2018-09-20T14:49:46.617Z,25.61
2018-09-20T14:52:51.700Z,25.57
2018-09-20T14:55:55.950Z,25.47
2018-09-20T14:58:59.526Z,25.37
2018-09-20T15:02:03.381Z,25.29
2018-09-20T15:05:07.321Z,25.36
2018-09-20T15:08:10.905Z,25.25
2018-09-20T15:11:14.475Z,25.20
2018-09-20T15:14:18.091Z,25.28
2018-09-20T15:17:21.760Z,25.25
2018-09-20T15:20:25.381Z,25.16
2018-09-20T15:23:28.969Z,25.28
2018-09-20T15:26:32.591Z,25.15
2018-09-20T15:29:36.171Z,25.27
2018-09-20T15:32:39.859Z,25.21
2018-09-20T15:35:43.279Z,24.98
2018-09-20T15:38:46.950Z,25.05
2018-09-20T15:41:50.541Z,24.98
2018-09-20T15:44:54.296Z,24.95
2018-09-20T15:47:57.892Z,24.98
2018-09-20T15:51:01.461Z,24.99
2018-09-20T15:54:05.132Z,24.73
2018-09-20T15:57:08.733Z,24.73
2018-09-20T16:00:12.543Z,24.61
2018-09-20T16:03:16.148Z,24.64
2018-09-20T16:06:19.739Z,24.62
2018-09-20T16:09:23.308Z,24.39
2018-09-20T16:12:27.047Z,24.33
2018-09-20T16:15:30.625Z,24.43
2018-09-20T16:18:34.218Z,24.24
2018-09-20T16:21:37.771Z,24.20
2018-09-20T16:24:41.407Z,24.19
2018-09-20T16:27:45.003Z,23.99
2018-09-20T16:31:08.415Z,23.81
2018-09-20T16:34:23.814Z,23.87
2018-09-20T16:37:42.717Z,23.68
2018-09-20T16:40:47.560Z,23.73
2018-09-20T16:43:51.191Z,23.71
2018-09-20T16:46:54.773Z,23.55
2018-09-20T16:49:58.579Z,23.37
2018-09-20T16:53:02.134Z,23.22
2018-09-20T16:56:05.785Z,23.06
2018-09-20T16:59:09.462Z,22.90
2018-09-20T17:02:13.045Z,22.77
2018-09-20T17:05:16.713Z,22.58
2018-09-20T17:08:20.362Z,22.32
2018-09-20T17:11:23.967Z,22.23
2018-09-20T17:14:27.628Z,22.09
2018-09-20T17:17:31.795Z,21.92
2018-09-20T17:20:35.376Z,21.60
2018-09-20T17:23:39.246Z,21.34
2018-09-20T17:26:42.857Z,21.30
2018-09-20T17:29:46.596Z,21.07
2018-09-20T17:32:50.266Z,21.08
2018-09-20T17:35:54.664Z,20.84
2018-09-20T17:38:59.087Z,20.65
2018-09-20T17:42:03.175Z,20.63
2018-09-20T17:45:06.733Z,20.54
2018-09-20T17:48:10.365Z,20.32
2018-09-20T17:51:16.259Z,20.24
2018-09-20T17:54:20.355Z,20.09
2018-09-20T17:57:24.703Z,19.91
2018-09-20T18:00:28.460Z,19.72
2018-09-20T18:03:32.079Z,19.60
2018-09-20T18:06:36.977Z,19.52
2018-09-20T18:09:40.833Z,19.53
2018-09-20T18:12:44.526Z,19.42
2018-09-20T18:15:48.200Z,19.38
2018-09-20T18:18:52.285Z,19.37
2018-09-20T18:21:55.933Z,19.36
2018-09-20T18:24:59.708Z,19.43
2018-09-20T18:28:03.548Z,19.68
2018-09-20T18:31:07.181Z,19.58
2018-09-20T18:34:10.951Z,19.46
2018-09-20T18:37:14.642Z,19.77
2018-09-20T18:40:18.371Z,19.77
2018-09-20T18:43:22.055Z,19.55
2018-09-20T18:46:25.795Z,19.67
2018-09-20T18:49:29.492Z,19.70
2018-09-20T18:52:33.273Z,19.55
2018-09-20T18:55:37.092Z,19.46
2018-09-20T18:58:40.995Z,19.46
2018-09-20T19:01:44.716Z,19.51
2018-09-20T19:04:48.454Z,19.43
2018-09-20T19:07:52.056Z,19.37
2018-09-20T19:10:55.762Z,19.16
2018-09-20T19:13:59.671Z,19.12
2018-09-20T19:17:03.298Z,19.11
2018-09-20T19:20:07.786Z,18.98
2018-09-20T19:23:11.471Z,18.98
2018-09-20T19:26:17.097Z,19.06
2018-09-20T19:29:29.986Z,19.04
2018-09-20T19:32:33.586Z,18.96
2018-09-20T19:35:37.224Z,18.96
2018-09-20T19:38:41.690Z,18.98
2018-09-20T19:41:45.270Z,18.98
2018-09-20T19:44:48.888Z,18.93
2018-09-20T19:47:52.567Z,18.89
2018-09-20T19:50:56.372Z,18.87
2018-09-20T19:54:00.088Z,18.85
2018-09-20T19:57:04.241Z,19.36
2018-09-20T20:00:08.230Z,19.10
2018-09-20T20:03:11.890Z,18.95
2018-09-20T20:06:15.475Z,18.88
2018-09-20T20:09:19.105Z,18.80
2018-09-20T20:12:22.738Z,18.67
2018-09-20T20:15:26.411Z,18.68
2018-09-20T20:18:30.020Z,18.66
2018-09-20T20:21:34.616Z,18.85
2018-09-20T20:24:38.244Z,18.83
2018-09-20T20:27:41.809Z,18.59
2018-09-20T20:30:45.524Z,18.65
2018-09-20T20:33:49.231Z,18.56
2018-09-20T20:36:52.863Z,18.61
2018-09-20T20:39:58.745Z,18.66
2018-09-20T20:43:02.510Z,18.76
2018-09-20T20:46:06.275Z,18.62
2018-09-20T20:49:10.060Z,18.71
2018-09-20T20:52:13.815Z,18.76
2018-09-20T20:55:17.508Z,18.68
2018-09-20T20:58:21.176Z,18.70
2018-09-20T21:01:24.748Z,18.73
2018-09-20T21:04:28.320Z,18.73
2018-09-20T21:07:31.924Z,18.80
2018-09-20T21:10:35.625Z,19.03
2018-09-20T21:13:39.302Z,19.17
2018-09-20T21:16:42.880Z,18.97
2018-09-20T21:19:46.570Z,18.94
2018-09-20T21:22:50.156Z,18.73
2018-09-20T21:25:53.892Z,18.89
2018-09-20T21:28:57.467Z,18.81
2018-09-20T21:32:01.082Z,18.82
2018-09-20T21:35:04.669Z,18.84
2018-09-20T21:38:08.227Z,18.81
2018-09-20T21:41:11.887Z,18.91
2018-09-20T21:44:15.550Z,18.93
2018-09-20T21:47:19.117Z,18.86
2018-09-20T21:50:22.732Z,18.87
2018-09-20T21:53:26.466Z,18.81
2018-09-20T21:56:30.001Z,18.80
2018-09-20T21:59:33.643Z,18.74
2018-09-20T22:02:42.411Z,18.71
2018-09-20T22:05:46.162Z,19.07
2018-09-20T22:08:49.801Z,19.30
2018-09-20T22:11:53.436Z,19.33
2018-09-20T22:14:57.017Z,19.51
2018-09-20T22:18:00.537Z,19.67
2018-09-20T22:21:04.128Z,19.87
2018-09-20T22:24:07.656Z,19.84
2018-09-20T22:27:11.186Z,19.97
2018-09-20T22:30:15.061Z,19.77
2018-09-20T22:33:18.666Z,19.85
2018-09-20T22:36:22.308Z,19.74
2018-09-20T22:39:25.902Z,19.86
2018-09-20T22:42:30.813Z,19.69
2018-09-20T22:45:34.307Z,19.80
2018-09-20T22:48:38.041Z,19.83
2018-09-20T22:51:41.656Z,19.48
2018-09-20T22:54:45.209Z,19.65
2018-09-20T22:57:48.742Z,19.97
2018-09-20T23:00:52.328Z,19.52
2018-09-20T23:03:55.862Z,19.16
2018-09-20T23:06:59.497Z,19.23
2018-09-20T23:10:03.123Z,18.91
2018-09-20T23:13:06.904Z,18.79
2018-09-20T23:16:10.546Z,18.83
2018-09-20T23:19:14.143Z,18.88
2018-09-20T23:22:17.672Z,18.72
2018-09-20T23:25:21.263Z,18.50
2018-09-20T23:28:24.789Z,18.34
2018-09-20T23:31:28.481Z,18.41
2018-09-20T23:34:32.046Z,19.29
2018-09-20T23:37:35.599Z,19.54
2018-09-20T23:40:39.213Z,19.14
2018-09-20T23:43:42.739Z,18.74
2018-09-20T23:46:46.360Z,18.88
2018-09-20T23:49:49.939Z,19.10
2018-09-20T23:52:53.610Z,18.77
2018-09-20T23:55:57.319Z,18.79
2018-09-20T23:59:00.908Z,18.96
